Randlett, Utah
Current Conditions -  °F | °C
As of 2:53 PM on Tuesday 21 Oct 2014 (Local Time) from KVEL Reporting Station
Clear Clear  
Wind Chill: 67°   Ceiling: Unl
Heat Index: 67°   Visibility: 10mi
Dew Point: 41°   Wind: 14mph
Humidity: 39%   Direction: 210°SSW
Pressure: 29.94"   Gusts: NA
Location:  40.23°N, 109.8°W
Report Text: KVEL 212053Z AUTO 21012KT 10SM CLR 19/05 A2994 RMK AO2 LTG DSNT N SLP098 T01940050 56024
Loading
Personal Weather Stations






























Interactive Weather Map
Tropical Storm Tracking
New forecast layout! Learn more

10-Day Weather Forecast

Advertisements
Track Severe Weather on mobile